Time;durP1;ratioP1;P1;durP2;ratioP2;P2;SDS_P1;SDS_P2;PMS_P1;PMS_P2;Temp;Humidity;BMP_temperature;BMP_pressure;BME280_temperature;BME280_humidity;BME280_pressure;Samples;Min_cycle;Max_cycle;Signal;HPM_P1;HPM_P2
2021/03/04 00:00:35;;;;;;;0.80;0.80;;;1.50;99.90;;;;;;5015204;28;20256;-67
2021/03/04 00:03:05;;;;;;;1.20;0.90;;;1.40;99.90;;;;;;5021001;28;20199;-68
2021/03/04 00:05:31;;;;;;;2.83;0.73;;;1.40;99.90;;;;;;5018241;28;20299;-67
2021/03/04 00:07:58;;;;;;;2.85;0.88;;;1.40;99.90;;;;;;5003710;28;20202;-67
2021/03/04 00:10:24;;;;;;;0.80;0.80;;;1.40;99.30;;;;;;5002783;28;20227;-67
2021/03/04 00:12:51;;;;;;;1.63;1.10;;;1.40;99.30;;;;;;5003311;28;20560;-68
2021/03/04 00:15:22;;;;;;;0.95;0.93;;;1.40;99.30;;;;;;5019092;28;20361;-68
2021/03/04 00:17:49;;;;;;;3.35;0.90;;;1.40;98.20;;;;;;5002228;28;20281;-69
2021/03/04 00:20:16;;;;;;;0.80;0.80;;;1.40;97.70;;;;;;5022958;28;20198;-68
2021/03/04 00:22:42;;;;;;;1.05;0.90;;;1.30;95.60;;;;;;5001735;28;20244;-68
2021/03/04 00:25:09;;;;;;;3.50;1.05;;;1.40;95.60;;;;;;5020417;28;20206;-68
2021/03/04 00:27:35;;;;;;;8.18;1.02;;;1.40;95.90;;;;;;5006179;28;20198;-68
2021/03/04 00:30:01;;;;;;;1.63;0.93;;;1.30;96.20;;;;;;5021616;28;20201;-68
2021/03/04 00:32:27;;;;;;;1.80;0.90;;;1.20;96.00;;;;;;5019254;28;20198;-68
2021/03/04 00:34:53;;;;;;;1.40;1.05;;;1.20;95.20;;;;;;5015751;28;20681;-68
2021/03/04 00:37:19;;;;;;;0.70;0.70;;;1.20;95.20;;;;;;5021386;28;20736;-68
2021/03/04 00:39:44;;;;;;;1.52;0.90;;;1.20;96.00;;;;;;5020743;28;20205;-70
2021/03/04 00:42:11;;;;;;;0.70;0.70;;;1.20;95.30;;;;;;5018304;28;20805;-68
2021/03/04 00:44:37;;;;;;;1.77;0.93;;;1.10;95.30;;;;;;5020501;28;20214;-70
2021/03/04 00:47:03;;;;;;;2.28;1.08;;;1.10;96.00;;;;;;5015308;28;20201;-68
2021/03/04 00:49:29;;;;;;;3.88;1.00;;;0.90;96.30;;;;;;5018521;28;20198;-68
2021/03/04 00:51:55;;;;;;;0.98;0.80;;;1.00;95.50;;;;;;5003308;28;20569;-68
2021/03/04 00:54:20;;;;;;;0.82;0.80;;;1.00;95.80;;;;;;5019349;28;20230;-68
2021/03/04 00:56:46;;;;;;;1.27;1.00;;;1.00;95.40;;;;;;5018659;28;20663;-69
2021/03/04 00:59:12;;;;;;;2.08;0.98;;;1.00;96.40;;;;;;5021250;28;20868;-70
2021/03/04 01:01:37;;;;;;;0.80;0.80;;;0.90;95.70;;;;;;5019411;28;20704;-68
2021/03/04 01:04:03;;;;;;;1.45;0.90;;;0.90;96.00;;;;;;5018898;28;20246;-70
2021/03/04 01:06:29;;;;;;;1.60;0.80;;;0.90;94.90;;;;;;5019990;28;20232;-69
2021/03/04 01:08:54;;;;;;;1.10;0.90;;;0.90;95.60;;;;;;5024994;28;21960;-68
2021/03/04 01:11:20;;;;;;;1.40;0.90;;;0.90;95.60;;;;;;5027021;28;20214;-69
2021/03/04 01:13:46;;;;;;;0.82;0.80;;;0.80;95.80;;;;;;5022444;28;20198;-69
2021/03/04 01:16:12;;;;;;;0.90;0.85;;;0.80;95.40;;;;;;5021785;28;20685;-69
2021/03/04 01:18:38;;;;;;;1.58;0.90;;;0.80;96.20;;;;;;5009919;28;20197;-69
2021/03/04 01:21:04;;;;;;;0.70;0.70;;;0.70;96.80;;;;;;5025719;28;20273;-69
2021/03/04 01:23:31;;;;;;;1.00;0.80;;;0.60;96.50;;;;;;5009178;28;20194;-68
2021/03/04 01:25:56;;;;;;;1.38;0.90;;;0.60;96.50;;;;;;5025067;28;20229;-70
2021/03/04 01:28:23;;;;;;;0.80;0.77;;;0.50;97.60;;;;;;5008381;28;20240;-71
2021/03/04 01:30:48;;;;;;;1.70;0.90;;;0.50;97.40;;;;;;5025617;28;21004;-68
2021/03/04 01:33:15;;;;;;;1.27;0.90;;;0.50;97.60;;;;;;5026955;28;20306;-69
2021/03/04 01:35:40;;;;;;;1.15;0.90;;;0.50;97.50;;;;;;5025176;28;20202;-69
2021/03/04 01:38:06;;;;;;;1.52;1.00;;;0.50;96.80;;;;;;5028976;28;20208;-68
2021/03/04 01:40:32;;;;;;;2.10;1.10;;;0.60;96.90;;;;;;5025740;28;20201;-70
2021/03/04 01:42:58;;;;;;;1.85;0.90;;;0.60;97.30;;;;;;5025040;28;20700;-68
2021/03/04 01:45:23;;;;;;;0.93;0.90;;;0.60;97.00;;;;;;5025252;28;20269;-68
2021/03/04 01:47:53;;;;;;;2.30;1.10;;;0.60;97.40;;;;;;5026583;28;20679;-68
2021/03/04 01:50:20;;;;;;;1.67;0.93;;;0.50;97.10;;;;;;5027647;28;20677;-68
2021/03/04 01:52:47;;;;;;;1.30;0.70;;;0.60;97.00;;;;;;5028001;28;20239;-68
2021/03/04 01:55:16;;;;;;;1.08;0.90;;;0.60;97.70;;;;;;5020566;28;20295;-68
2021/03/04 01:57:43;;;;;;;1.45;0.80;;;0.50;98.80;;;;;;5025322;28;20186;-68
2021/03/04 02:00:11;;;;;;;2.30;0.93;;;0.40;97.70;;;;;;5025440;28;20245;-67
2021/03/04 02:02:37;;;;;;;1.17;0.93;;;0.40;98.00;;;;;;5025529;28;20206;-72
2021/03/04 02:05:08;;;;;;;1.10;0.90;;;0.40;98.50;;;;;;5023445;28;20230;-71
2021/03/04 02:07:55;;;;;;;1.67;0.80;;;0.50;98.30;;;;;;5026452;28;20657;-72
2021/03/04 02:10:34;;;;;;;1.88;1.00;;;0.50;97.40;;;;;;5016643;28;20198;-73
2021/03/04 02:13:05;;;;;;;1.00;0.90;;;0.50;97.30;;;;;;5017643;28;20329;-71
2021/03/04 02:15:54;;;;;;;1.13;1.00;;;0.50;97.90;;;;;;5021376;28;20244;-72
2021/03/04 02:18:25;;;;;;;3.88;0.90;;;0.40;97.80;;;;;;5013150;28;20709;-73
2021/03/04 02:21:03;;;;;;;6.03;1.20;;;0.40;98.00;;;;;;5020222;28;20198;-73
2021/03/04 02:24:14;;;;;;;1.10;0.98;;;0.40;98.10;;;;;;5019975;28;20293;-72
2021/03/04 02:27:01;;;;;;;1.55;0.90;;;0.30;98.10;;;;;;5021218;28;20268;-73
2021/03/04 02:29:29;;;;;;;1.98;0.95;;;0.30;98.20;;;;;;5021463;28;20232;-72
2021/03/04 02:31:56;;;;;;;0.80;0.80;;;0.30;97.50;;;;;;5016178;28;20209;-72
2021/03/04 02:34:25;;;;;;;1.23;1.00;;;0.30;97.90;;;;;;5014158;28;20272;-72
2021/03/04 02:36:53;;;;;;;5.25;0.98;;;0.30;97.90;;;;;;5022597;28;20660;-72
2021/03/04 02:39:20;;;;;;;3.85;1.10;;;0.20;98.40;;;;;;5021246;28;20205;-72
2021/03/04 02:41:46;;;;;;;1.30;0.93;;;0.20;98.10;;;;;;5025430;28;20203;-72
2021/03/04 02:44:13;;;;;;;2.78;0.90;;;0.10;98.50;;;;;;5003327;28;20211;-72
2021/03/04 02:46:40;;;;;;;5.65;1.15;;;0.10;98.50;;;;;;5019857;28;20198;-72
2021/03/04 02:49:07;;;;;;;2.00;0.80;;;-0.10;99.00;;;;;;5023860;28;20198;-72
2021/03/04 02:51:35;;;;;;;1.17;0.82;;;-0.20;99.20;;;;;;5023527;28;20199;-73
2021/03/04 02:54:02;;;;;;;1.48;0.93;;;-0.30;99.20;;;;;;5002196;28;20202;-72
2021/03/04 02:56:29;;;;;;;1.92;1.00;;;-0.30;99.70;;;;;;4989475;28;20202;-72
2021/03/04 02:58:58;;;;;;;2.15;0.80;;;-0.50;99.90;;;;;;5010317;28;20201;-73
2021/03/04 03:01:26;;;;;;;0.98;0.90;;;-0.50;99.90;;;;;;5017009;28;20221;-72
2021/03/04 03:03:54;;;;;;;2.45;0.95;;;-0.50;99.90;;;;;;5015008;28;20681;-72
2021/03/04 03:06:21;;;;;;;1.08;0.93;;;-0.50;99.90;;;;;;5022748;28;20205;-72
2021/03/04 03:08:48;;;;;;;1.10;0.90;;;-0.50;99.90;;;;;;5022685;28;20566;-72
2021/03/04 03:11:16;;;;;;;3.45;0.98;;;-0.60;99.90;;;;;;5020640;28;20195;-73
2021/03/04 03:13:43;;;;;;;2.03;0.75;;;-0.60;99.90;;;;;;5023673;28;20197;-72
2021/03/04 03:16:09;;;;;;;1.40;1.00;;;-0.70;99.90;;;;;;5023533;28;20202;-74
2021/03/04 03:18:35;;;;;;;2.10;1.00;;;-0.80;99.90;;;;;;5020343;28;20211;-73
2021/03/04 03:21:00;;;;;;;1.00;0.80;;;-0.90;99.90;;;;;;5005002;28;20213;-71
2021/03/04 03:23:26;;;;;;;2.13;1.10;;;-0.90;99.90;;;;;;5005276;28;20224;-72
2021/03/04 03:25:52;;;;;;;2.65;1.10;;;-1.00;99.90;;;;;;5008263;28;20201;-72
2021/03/04 03:28:17;;;;;;;3.75;1.00;;;-1.00;99.90;;;;;;5018041;28;20865;-73
2021/03/04 03:30:43;;;;;;;2.33;1.33;;;-0.90;99.90;;;;;;5001742;28;20205;-72
2021/03/04 03:33:13;;;;;;;3.80;1.00;;;-1.00;99.90;;;;;;5015770;28;20565;-73
2021/03/04 03:35:39;;;;;;;2.53;1.10;;;-1.10;99.90;;;;;;4999495;28;20220;-72
2021/03/04 03:38:06;;;;;;;2.95;1.05;;;-1.20;99.90;;;;;;5018246;28;20881;-71
2021/03/04 03:40:34;;;;;;;1.30;1.10;;;-1.20;99.90;;;;;;5020463;28;20194;-71
2021/03/04 03:43:03;;;;;;;3.97;0.90;;;-1.30;99.90;;;;;;5009061;28;20201;-72
2021/03/04 03:45:33;;;;;;;2.58;1.00;;;-1.20;99.90;;;;;;5012787;28;20195;-72
2021/03/04 03:48:00;;;;;;;1.50;0.90;;;-1.20;99.90;;;;;;5015387;28;20201;-72
2021/03/04 03:50:27;;;;;;;1.23;1.00;;;-1.40;99.90;;;;;;5018644;28;20597;-72
2021/03/04 03:52:53;;;;;;;1.35;1.00;;;-1.40;99.90;;;;;;5008368;28;20195;-72
2021/03/04 03:55:20;;;;;;;3.03;1.10;;;-1.50;99.90;;;;;;5012651;28;20556;-71
2021/03/04 03:57:47;;;;;;;0.95;0.90;;;-1.40;99.90;;;;;;5021762;28;20199;-71
2021/03/04 04:00:14;;;;;;;2.78;1.02;;;-1.50;99.90;;;;;;4997515;28;20673;-72
2021/03/04 04:02:41;;;;;;;4.82;1.20;;;-1.60;99.90;;;;;;5019074;28;20190;-71
2021/03/04 04:05:07;;;;;;;1.95;0.90;;;-1.50;99.90;;;;;;5015305;28;20245;-71
2021/03/04 04:07:34;;;;;;;2.10;0.90;;;-1.60;99.90;;;;;;5018329;28;20723;-72
2021/03/04 04:10:03;;;;;;;1.85;1.05;;;-1.70;99.90;;;;;;5024349;28;20672;-72
2021/03/04 04:12:29;;;;;;;3.83;1.00;;;-1.70;99.90;;;;;;5006187;28;20204;-72
2021/03/04 04:14:55;;;;;;;1.42;0.93;;;-1.70;99.90;;;;;;5022343;28;20278;-71
2021/03/04 04:17:21;;;;;;;1.00;1.00;;;-1.60;99.90;;;;;;5017066;28;20948;-72
2021/03/04 04:19:48;;;;;;;0.90;0.90;;;-1.70;99.90;;;;;;5011737;28;20208;-72
2021/03/04 04:22:15;;;;;;;1.58;1.00;;;-1.70;99.90;;;;;;5013371;28;20194;-72
2021/03/04 04:24:41;;;;;;;1.00;0.90;;;-1.70;99.90;;;;;;5009055;28;20217;-71
2021/03/04 04:27:07;;;;;;;1.13;1.02;;;-1.80;99.90;;;;;;5012561;28;20289;-72
2021/03/04 04:29:33;;;;;;;2.45;0.90;;;-1.80;99.90;;;;;;5005425;28;20668;-71
2021/03/04 04:31:58;;;;;;;4.90;1.23;;;-1.80;99.90;;;;;;5008325;28;20190;-72
2021/03/04 04:34:24;;;;;;;3.80;1.00;;;-1.80;99.90;;;;;;5017939;28;20194;-71
2021/03/04 04:36:50;;;;;;;4.00;1.00;;;-1.80;99.90;;;;;;5008753;28;20653;-72
2021/03/04 04:39:16;;;;;;;1.63;1.10;;;-1.80;99.90;;;;;;5021177;28;20256;-72
2021/03/04 04:41:42;;;;;;;1.27;1.15;;;-1.90;99.90;;;;;;5025083;28;20210;-72
2021/03/04 04:44:08;;;;;;;3.08;1.00;;;-1.90;99.90;;;;;;5024820;28;20202;-71
2021/03/04 04:46:34;;;;;;;3.65;1.00;;;-1.90;99.90;;;;;;5020884;28;20202;-72
2021/03/04 04:48:59;;;;;;;0.90;0.90;;;-1.80;99.90;;;;;;5009842;28;20278;-72
2021/03/04 04:51:25;;;;;;;1.52;1.10;;;-1.80;99.90;;;;;;5023552;28;20194;-71
2021/03/04 04:53:51;;;;;;;1.73;1.00;;;-1.80;99.90;;;;;;5020469;28;20206;-72
2021/03/04 04:56:16;;;;;;;1.33;1.00;;;-1.80;99.90;;;;;;5001460;28;20333;-71
2021/03/04 04:58:42;;;;;;;2.97;1.00;;;-1.80;99.90;;;;;;5008374;28;20210;-71
2021/03/04 05:01:08;;;;;;;2.17;0.90;;;-1.80;99.90;;;;;;5026950;28;20653;-72
2021/03/04 05:03:34;;;;;;;1.83;0.95;;;-1.80;99.90;;;;;;5028214;28;20214;-72
2021/03/04 05:05:59;;;;;;;1.73;0.88;;;-1.80;99.90;;;;;;5019059;28;20210;-73
2021/03/04 05:08:25;;;;;;;4.65;1.20;;;-1.80;99.90;;;;;;5023452;28;20194;-73
2021/03/04 05:10:51;;;;;;;2.58;1.20;;;-1.80;99.90;;;;;;5028460;28;20199;-72
2021/03/04 05:13:16;;;;;;;1.38;1.00;;;-1.90;99.90;;;;;;5026567;28;20614;-72
2021/03/04 05:15:42;;;;;;;2.90;1.10;;;-1.90;99.90;;;;;;5024625;28;20256;-72
2021/03/04 05:18:08;;;;;;;1.42;1.10;;;-1.80;99.90;;;;;;5007655;28;20210;-71
2021/03/04 05:20:33;;;;;;;1.13;0.93;;;-1.70;99.90;;;;;;5022605;28;20204;-71
2021/03/04 05:22:59;;;;;;;1.83;1.00;;;-1.70;99.90;;;;;;5027565;28;20205;-72
2021/03/04 05:25:25;;;;;;;1.85;1.13;;;-1.60;99.90;;;;;;5004629;28;20609;-71
2021/03/04 05:27:51;;;;;;;1.10;1.00;;;-1.70;99.90;;;;;;5018346;28;20204;-73
2021/03/04 05:30:17;;;;;;;6.53;1.25;;;-1.70;99.90;;;;;;5027000;28;20221;-72
2021/03/04 05:32:42;;;;;;;1.42;0.90;;;-1.80;99.90;;;;;;5027182;28;20281;-72
2021/03/04 05:35:09;;;;;;;1.48;1.15;;;-1.70;99.90;;;;;;5004086;28;20211;-72
2021/03/04 05:37:34;;;;;;;1.67;1.10;;;-1.70;99.90;;;;;;5025301;28;20700;-72
2021/03/04 05:40:00;;;;;;;2.03;0.98;;;-1.80;99.90;;;;;;5009900;28;20234;-72
2021/03/04 05:42:30;;;;;;;1.63;1.05;;;-1.80;99.90;;;;;;5026550;28;20823;-73
2021/03/04 05:44:56;;;;;;;1.27;1.00;;;-1.80;99.90;;;;;;5011028;28;20572;-72
2021/03/04 05:47:22;;;;;;;4.22;1.00;;;-1.80;99.90;;;;;;5008288;28;20202;-71
2021/03/04 05:50:07;;;;;;;2.55;0.90;;;-1.90;99.90;;;;;;5028691;28;20190;-73
2021/03/04 05:52:39;;;;;;;1.42;0.93;;;-1.80;99.90;;;;;;5010112;28;20554;-71
2021/03/04 05:55:05;;;;;;;4.00;1.40;;;-1.90;99.90;;;;;;5020237;28;20222;-72
2021/03/04 05:57:31;;;;;;;1.50;1.02;;;-2.00;99.90;;;;;;5006019;28;20198;-72
2021/03/04 05:59:58;;;;;;;1.60;1.23;;;-2.00;99.90;;;;;;5022460;28;20248;-71
2021/03/04 06:02:24;;;;;;;1.20;1.10;;;-1.90;99.90;;;;;;5018688;28;20223;-71
2021/03/04 06:04:51;;;;;;;5.55;1.10;;;-1.90;99.90;;;;;;5021452;28;20218;-72
2021/03/04 06:07:17;;;;;;;0.98;0.90;;;-1.80;99.90;;;;;;5018450;28;20210;-72
2021/03/04 06:09:43;;;;;;;1.23;1.13;;;-1.90;99.90;;;;;;5022798;28;20716;-72
2021/03/04 06:12:09;;;;;;;4.65;2.15;;;-2.00;99.90;;;;;;5023369;28;20890;-72
2021/03/04 06:14:37;;;;;;;3.25;1.40;;;-1.90;99.90;;;;;;5021371;28;20347;-72
2021/03/04 06:17:16;;;;;;;3.08;1.02;;;-1.90;99.90;;;;;;5017787;28;20268;-72
2021/03/04 06:20:00;;;;;;;9.75;5.70;;;-1.90;99.90;;;;;;5019655;28;20774;-73
2021/03/04 06:22:31;;;;;;;4.20;1.42;;;-1.90;99.90;;;;;;5021270;28;20201;-72
2021/03/04 06:24:59;;;;;;;9.15;2.47;;;-1.80;99.90;;;;;;5004615;28;20214;-74
2021/03/04 06:27:33;;;;;;;13.60;6.10;;;-1.80;99.90;;;;;;5022761;28;20684;-71
2021/03/04 06:30:02;;;;;;;2.70;1.95;;;-1.90;99.90;;;;;;5019387;28;20672;-72
2021/03/04 06:32:28;;;;;;;2.97;1.02;;;-1.80;99.90;;;;;;4994138;28;20198;-72
2021/03/04 06:35:04;;;;;;;4.70;1.60;;;-1.80;99.90;;;;;;5015815;28;20740;-72
2021/03/04 06:37:30;;;;;;;2.08;1.20;;;-1.70;99.90;;;;;;5019444;28;20236;-72
2021/03/04 06:39:57;;;;;;;3.83;1.20;;;-1.70;99.90;;;;;;5021921;28;20190;-72
2021/03/04 06:42:23;;;;;;;2.00;1.00;;;-1.60;99.90;;;;;;5021776;28;20203;-71
2021/03/04 06:44:53;;;;;;;1.85;1.00;;;-1.50;99.90;;;;;;5016758;28;20643;-74
2021/03/04 06:47:26;;;;;;;1.42;1.10;;;-1.50;99.90;;;;;;5004103;28;20253;-71
2021/03/04 06:49:53;;;;;;;3.67;1.55;;;-1.40;99.90;;;;;;5018454;28;20236;-71
2021/03/04 06:52:35;;;;;;;2.83;1.63;;;-1.40;99.90;;;;;;4994078;28;20679;-71
2021/03/04 06:55:11;;;;;;;9.45;1.80;;;-1.40;99.90;;;;;;5015820;28;20198;-71
2021/03/04 06:57:37;;;;;;;2.50;1.10;;;-1.30;99.90;;;;;;5019099;28;20200;-72
2021/03/04 07:00:18;;;;;;;7.05;1.95;;;-1.30;99.90;;;;;;5001688;28;20206;-72
2021/03/04 07:02:54;;;;;;;1.63;1.00;;;-1.30;99.90;;;;;;5017298;28;20197;-72
2021/03/04 07:05:21;;;;;;;2.50;1.40;;;-1.20;99.90;;;;;;5015194;28;20226;-72
2021/03/04 07:07:52;;;;;;;3.53;1.10;;;-1.20;99.90;;;;;;5019647;28;20805;-72
2021/03/04 07:10:21;;;;;;;6.68;1.10;;;-1.20;99.90;;;;;;5019074;28;20194;-73
2021/03/04 07:12:48;;;;;;;3.88;1.20;;;-1.10;99.90;;;;;;5021629;28;20194;-71
2021/03/04 07:15:15;;;;;;;5.13;2.00;;;-1.00;99.90;;;;;;5017441;28;20308;-71
2021/03/04 07:17:42;;;;;;;2.55;1.30;;;-0.90;99.90;;;;;;5020211;28;20210;-71
2021/03/04 07:20:14;;;;;;;3.25;1.45;;;-0.90;99.90;;;;;;5019538;28;20758;-71
2021/03/04 07:22:42;;;;;;;5.13;1.38;;;-0.90;99.90;;;;;;5018318;28;20198;-72
2021/03/04 07:25:11;;;;;;;8.73;2.90;;;-0.80;99.90;;;;;;5019402;28;20210;-71
2021/03/04 07:27:37;;;;;;;4.47;1.90;;;-0.70;99.90;;;;;;5021474;28;20194;-71
2021/03/04 07:30:03;;;;;;;5.05;1.60;;;-0.80;99.90;;;;;;5002020;28;20250;-72
2021/03/04 07:32:29;;;;;;;6.22;1.42;;;-0.70;99.90;;;;;;5022343;28;20205;-72
2021/03/04 07:34:55;;;;;;;2.65;1.75;;;-0.70;99.90;;;;;;5019118;28;20978;-71
2021/03/04 07:37:21;;;;;;;2.35;1.13;;;-0.60;99.90;;;;;;5017829;28;20226;-71
2021/03/04 07:39:58;;;;;;;2.85;1.95;;;-0.50;99.90;;;;;;5018184;28;20210;-71
2021/03/04 07:42:24;;;;;;;4.30;1.17;;;-0.40;99.90;;;;;;5017923;28;20194;-71
2021/03/04 07:44:50;;;;;;;4.63;1.27;;;-0.40;99.90;;;;;;5020142;28;20220;-70
2021/03/04 07:47:27;;;;;;;22.08;1.48;;;-0.40;99.90;;;;;;5016696;28;20194;-72
2021/03/04 07:49:54;;;;;;;0.88;0.80;;;-0.30;99.90;;;;;;5021189;28;20194;-70
2021/03/04 07:52:24;;;;;;;2.55;1.00;;;-0.30;99.90;;;;;;5022716;28;20198;-71
2021/03/04 07:54:52;;;;;;;3.85;1.20;;;-0.20;99.90;;;;;;5019549;28;20194;-72
2021/03/04 07:57:28;;;;;;;4.47;1.10;;;-0.20;99.90;;;;;;5018606;28;20787;-71
2021/03/04 07:59:56;;;;;;;2.08;1.25;;;-0.10;99.90;;;;;;5018639;28;20250;-72
2021/03/04 08:02:37;;;;;;;3.17;1.00;;;-0.10;99.90;;;;;;5001557;28;20672;-74
2021/03/04 08:05:19;;;;;;;1.10;1.00;;;0.00;99.90;;;;;;5010666;28;20226;-72
2021/03/04 08:07:50;;;;;;;1.88;1.13;;;0.20;99.90;;;;;;5001761;28;20191;-72
2021/03/04 08:10:22;;;;;;;2.00;1.20;;;0.20;99.90;;;;;;4964551;28;20211;-72
2021/03/04 08:12:50;;;;;;;1.17;0.90;;;0.30;99.90;;;;;;5004026;28;20222;-72
2021/03/04 08:15:46;;;;;;;11.80;2.10;;;0.50;99.70;;;;;;4999180;28;20210;-72
2021/03/04 08:18:20;;;;;;;4.95;1.63;;;0.50;99.90;;;;;;4992876;28;20225;-73
2021/03/04 08:20:47;;;;;;;3.17;1.55;;;0.60;98.70;;;;;;4977820;28;20273;-73
2021/03/04 08:23:15;;;;;;;3.45;1.13;;;0.70;98.80;;;;;;5001422;28;20198;-73
2021/03/04 08:25:41;;;;;;;3.45;1.10;;;0.80;98.90;;;;;;4997407;28;20688;-73
2021/03/04 08:28:08;;;;;;;5.47;1.38;;;0.90;97.30;;;;;;5000610;28;20202;-72
2021/03/04 08:30:37;;;;;;;3.97;1.48;;;1.00;98.20;;;;;;4998825;28;20195;-72
2021/03/04 08:33:05;;;;;;;2.35;1.35;;;1.10;97.60;;;;;;4980934;28;20314;-71
2021/03/04 08:35:38;;;;;;;1.35;1.20;;;1.30;97.10;;;;;;4997898;28;20667;-71
2021/03/04 08:38:08;;;;;;;1.52;1.02;;;1.30;96.80;;;;;;5001614;28;20280;-72
2021/03/04 08:40:42;;;;;;;3.75;1.20;;;1.30;96.30;;;;;;4980625;28;20196;-71
2021/03/04 08:43:13;;;;;;;4.28;1.20;;;1.40;96.60;;;;;;4981702;28;20878;-73
2021/03/04 08:45:39;;;;;;;1.38;0.90;;;1.50;96.50;;;;;;5002857;28;20264;-72
2021/03/04 08:48:06;;;;;;;5.13;1.17;;;1.60;95.60;;;;;;4983610;28;20203;-72
2021/03/04 08:50:41;;;;;;;1.02;0.90;;;1.70;95.10;;;;;;5000407;28;20246;-72
2021/03/04 08:53:18;;;;;;;2.97;1.15;;;1.80;94.80;;;;;;4999017;28;20255;-72
2021/03/04 08:55:49;;;;;;;4.80;1.20;;;1.80;94.70;;;;;;5003382;28;20194;-72
2021/03/04 08:58:15;;;;;;;2.30;0.98;;;1.70;94.90;;;;;;5000218;28;20566;-71
2021/03/04 09:00:52;;;;;;;3.38;0.80;;;1.80;94.60;;;;;;5000143;28;20273;-73
2021/03/04 09:03:19;;;;;;;5.55;1.00;;;1.80;93.80;;;;;;4995964;28;20195;-72
2021/03/04 09:05:45;;;;;;;10.05;1.35;;;1.80;94.20;;;;;;4998692;28;20222;-72
2021/03/04 09:08:15;;;;;;;3.05;1.23;;;1.70;94.40;;;;;;4995211;28;20203;-72
2021/03/04 09:10:50;;;;;;;3.67;1.30;;;1.70;94.40;;;;;;5000360;28;20218;-73
2021/03/04 09:13:35;;;;;;;2.78;1.10;;;1.90;93.70;;;;;;4997372;28;20199;-72
2021/03/04 09:16:06;;;;;;;2.00;0.70;;;2.00;93.60;;;;;;4999121;28;20199;-72
2021/03/04 09:18:44;;;;;;;7.93;3.97;;;2.10;93.50;;;;;;4999973;28;20214;-73
2021/03/04 09:21:18;;;;;;;3.30;1.50;;;2.00;93.00;;;;;;4986146;28;20198;-73
2021/03/04 09:23:44;;;;;;;2.47;0.90;;;2.20;93.80;;;;;;5001457;28;20263;-72
2021/03/04 09:26:10;;;;;;;5.32;1.52;;;2.30;92.30;;;;;;5002220;28;20199;-73
2021/03/04 09:28:38;;;;;;;4.22;1.00;;;2.40;92.40;;;;;;4999632;28;20980;-73
2021/03/04 09:31:15;;;;;;;1.50;0.90;;;2.40;91.60;;;;;;5004888;28;20198;-73
2021/03/04 09:33:41;;;;;;;2.95;0.90;;;2.50;92.00;;;;;;4999552;28;20241;-73
2021/03/04 09:36:07;;;;;;;5.70;1.00;;;2.60;92.00;;;;;;5002965;28;20207;-73
2021/03/04 09:38:36;;;;;;;2.50;0.93;;;2.60;91.50;;;;;;5004550;28;20256;-72
2021/03/04 09:41:12;;;;;;;3.00;0.95;;;2.70;91.90;;;;;;5004180;28;20196;-72
2021/03/04 09:43:40;;;;;;;2.90;1.10;;;2.90;91.00;;;;;;5006197;28;20681;-71
2021/03/04 09:46:06;;;;;;;1.85;0.82;;;2.90;90.00;;;;;;5003871;28;20202;-71
2021/03/04 09:48:33;;;;;;;6.63;1.08;;;2.90;89.40;;;;;;5004371;28;20214;-72
2021/03/04 09:50:59;;;;;;;1.70;0.93;;;2.90;90.50;;;;;;5002969;28;20200;-72
2021/03/04 09:53:25;;;;;;;2.85;1.00;;;3.20;90.00;;;;;;5004490;28;20210;-71
2021/03/04 09:55:50;;;;;;;2.00;0.90;;;3.40;87.20;;;;;;4982443;28;20303;-71
2021/03/04 09:58:19;;;;;;;2.50;1.00;;;3.30;88.50;;;;;;4980122;28;20298;-72
2021/03/04 10:00:54;;;;;;;5.85;0.85;;;3.50;88.50;;;;;;4981913;28;20207;-72
2021/03/04 10:03:19;;;;;;;3.53;0.98;;;3.50;86.30;;;;;;4997926;28;20287;-71
2021/03/04 10:05:51;;;;;;;1.33;0.70;;;3.60;87.10;;;;;;5003449;28;20233;-71
2021/03/04 10:08:18;;;;;;;1.88;1.00;;;3.60;85.40;;;;;;5000544;28;20198;-72
2021/03/04 10:10:44;;;;;;;4.35;0.82;;;3.80;85.90;;;;;;4979943;28;20194;-72
2021/03/04 10:13:10;;;;;;;2.83;0.80;;;4.00;86.80;;;;;;5001986;28;20194;-71
2021/03/04 10:15:38;;;;;;;1.15;0.90;;;4.10;83.30;;;;;;4984678;28;21000;-71
2021/03/04 10:18:10;;;;;;;1.42;1.00;;;4.00;84.00;;;;;;4982598;28;20575;-71
2021/03/04 10:20:37;;;;;;;2.17;1.10;;;4.10;81.70;;;;;;4995840;28;20249;-71
2021/03/04 10:23:05;;;;;;;2.15;1.05;;;4.00;84.80;;;;;;4999586;28;20286;-71
2021/03/04 10:25:31;;;;;;;0.70;0.70;;;3.90;82.10;;;;;;4999864;28;20573;-71
2021/03/04 10:27:59;;;;;;;1.98;0.80;;;4.00;79.80;;;;;;5000292;28;20206;-72
2021/03/04 10:30:27;;;;;;;2.92;0.90;;;3.90;80.30;;;;;;4996706;28;20245;-72
2021/03/04 10:32:54;;;;;;;4.13;0.85;;;4.00;83.00;;;;;;5000765;28;20198;-72
2021/03/04 10:35:20;;;;;;;1.77;0.90;;;4.10;80.60;;;;;;5001923;28;20203;-71
2021/03/04 10:37:46;;;;;;;2.15;0.90;;;4.10;78.80;;;;;;4985470;28;20674;-72
2021/03/04 10:40:14;;;;;;;0.70;0.70;;;4.30;79.30;;;;;;4980744;28;20211;-73
2021/03/04 10:42:40;;;;;;;1.80;0.90;;;4.30;82.00;;;;;;4997507;28;20234;-72
2021/03/04 10:45:09;;;;;;;1.75;1.05;;;4.50;78.80;;;;;;4982049;28;20210;-71
2021/03/04 10:47:35;;;;;;;6.20;1.92;;;4.50;79.10;;;;;;5001822;28;20588;-72
2021/03/04 10:50:01;;;;;;;3.72;1.58;;;4.40;80.50;;;;;;5001022;28;20187;-72
2021/03/04 10:52:27;;;;;;;2.35;1.00;;;4.50;80.90;;;;;;4977813;28;20196;-71
2021/03/04 10:54:53;;;;;;;2.50;0.90;;;4.60;79.40;;;;;;4985257;28;21134;-72
2021/03/04 10:57:19;;;;;;;3.50;0.90;;;4.60;77.80;;;;;;5001404;28;20288;-72
2021/03/04 10:59:45;;;;;;;1.85;0.90;;;4.60;75.00;;;;;;5001951;28;20350;-71
2021/03/04 11:02:11;;;;;;;4.45;1.10;;;4.70;78.80;;;;;;4998485;28;20899;-72
2021/03/04 11:04:37;;;;;;;1.58;1.00;;;4.70;79.10;;;;;;4994063;28;20222;-72
2021/03/04 11:07:03;;;;;;;1.50;0.80;;;5.00;78.20;;;;;;4992706;28;20219;-72
2021/03/04 11:09:28;;;;;;;2.78;0.93;;;5.10;74.80;;;;;;4992089;28;20249;-72
2021/03/04 11:11:54;;;;;;;2.38;0.98;;;5.10;76.70;;;;;;4994913;28;20277;-72
2021/03/04 11:14:20;;;;;;;1.38;0.80;;;5.10;73.70;;;;;;4988233;28;20211;-72
2021/03/04 11:16:45;;;;;;;2.03;1.05;;;5.00;77.50;;;;;;4993352;28;20252;-72
2021/03/04 11:19:13;;;;;;;3.67;1.00;;;5.10;76.80;;;;;;4995984;28;20289;-72
2021/03/04 11:21:40;;;;;;;1.95;1.00;;;5.10;75.70;;;;;;4991484;28;20227;-72
2021/03/04 11:24:07;;;;;;;1.42;0.90;;;5.00;75.30;;;;;;4994848;28;20214;-72
2021/03/04 11:26:33;;;;;;;0.88;0.88;;;5.20;74.20;;;;;;4993952;28;20254;-72
2021/03/04 11:29:00;;;;;;;4.90;1.05;;;5.40;73.50;;;;;;4997411;28;20725;-71
2021/03/04 11:31:26;;;;;;;1.55;0.95;;;5.40;72.40;;;;;;5001030;28;20195;-72
2021/03/04 11:33:52;;;;;;;1.75;0.95;;;5.30;72.60;;;;;;4999698;28;20213;-71
2021/03/04 11:36:18;;;;;;;1.35;0.80;;;5.30;75.00;;;;;;5000916;28;20284;-71
2021/03/04 11:38:43;;;;;;;1.05;0.70;;;5.40;72.10;;;;;;5001126;28;20280;-71
2021/03/04 11:41:09;;;;;;;2.97;0.75;;;5.40;72.50;;;;;;4998763;28;20207;-71
2021/03/04 11:43:35;;;;;;;1.75;0.95;;;5.50;69.90;;;;;;5001940;28;20203;-72
2021/03/04 11:46:00;;;;;;;2.50;0.95;;;5.60;71.20;;;;;;4999024;28;20400;-71
2021/03/04 11:48:26;;;;;;;2.80;1.10;;;5.30;70.50;;;;;;5000547;28;20217;-70
2021/03/04 11:50:52;;;;;;;2.22;0.80;;;5.60;93.20;;;;;;4997549;28;20194;-71
2021/03/04 11:53:17;;;;;;;1.27;0.95;;;7.10;89.30;;;;;;4998590;28;20202;-71
2021/03/04 11:55:43;;;;;;;2.38;0.77;;;7.80;85.00;;;;;;4996265;28;20199;-72
2021/03/04 11:58:09;;;;;;;1.95;0.82;;;8.20;69.40;;;;;;4998435;28;20207;-72
2021/03/04 12:00:34;;;;;;;3.45;0.80;;;8.20;74.90;;;;;;5001352;28;20190;-70
2021/03/04 12:03:01;;;;;;;2.80;1.00;;;8.10;64.10;;;;;;4984831;28;20740;-72
2021/03/04 12:05:26;;;;;;;1.13;0.90;;;7.90;64.70;;;;;;5002042;28;20259;-72
2021/03/04 12:07:52;;;;;;;1.48;0.90;;;7.90;62.60;;;;;;4986817;28;20293;-71
2021/03/04 12:10:18;;;;;;;1.73;0.90;;;7.30;65.70;;;;;;5004691;28;20201;-71
2021/03/04 12:12:43;;;;;;;1.02;0.75;;;7.00;63.40;;;;;;5002101;28;20653;-73
2021/03/04 12:15:10;;;;;;;1.80;0.80;;;6.90;65.90;;;;;;5003584;28;20835;-72
2021/03/04 12:17:36;;;;;;;2.45;0.88;;;6.60;67.60;;;;;;5003626;28;20191;-74
2021/03/04 12:20:03;;;;;;;4.93;1.13;;;6.60;67.10;;;;;;5008911;28;20221;-72
2021/03/04 12:22:29;;;;;;;1.77;0.95;;;6.50;64.50;;;;;;5002636;28;20681;-72
2021/03/04 12:24:54;;;;;;;1.17;1.00;;;6.60;67.00;;;;;;5005425;28;20309;-72
2021/03/04 12:27:20;;;;;;;2.53;0.82;;;6.90;67.20;;;;;;4999134;28;20207;-72
2021/03/04 12:29:46;;;;;;;1.50;0.80;;;7.20;65.80;;;;;;5006984;28;20209;-73
2021/03/04 12:32:11;;;;;;;3.13;0.80;;;7.30;64.80;;;;;;5004092;28;20203;-72
2021/03/04 12:34:37;;;;;;;2.20;1.00;;;7.10;62.10;;;;;;4998929;28;21295;-72
2021/03/04 12:37:03;;;;;;;1.92;0.80;;;7.10;64.30;;;;;;5002479;28;21013;-73
2021/03/04 12:39:29;;;;;;;3.08;0.90;;;7.10;62.50;;;;;;5004494;28;20590;-73
2021/03/04 12:41:54;;;;;;;0.80;0.63;;;7.20;62.70;;;;;;5000822;28;20190;-72
2021/03/04 12:44:20;;;;;;;0.57;0.52;;;7.10;63.00;;;;;;5002094;28;20217;-73
2021/03/04 12:46:46;;;;;;;1.27;1.00;;;6.80;61.50;;;;;;5004590;28;20308;-73
2021/03/04 12:49:11;;;;;;;1.95;1.00;;;6.60;63.30;;;;;;5002580;28;20250;-73
2021/03/04 12:51:37;;;;;;;2.30;0.80;;;6.60;63.10;;;;;;5003832;28;20436;-71
2021/03/04 12:54:03;;;;;;;2.30;0.82;;;6.60;62.90;;;;;;5003514;28;20265;-73
2021/03/04 12:56:28;;;;;;;1.70;0.80;;;6.40;64.30;;;;;;4987747;28;20322;-72